Time;durP1;ratioP1;P1;durP2;ratioP2;P2;SDS_P1;SDS_P2;PMS_P1;PMS_P2;Temp;Humidity;BMP_temperature;BMP_pressure;BME280_temperature;BME280_humidity;BME280_pressure;Samples;Min_cycle;Max_cycle;Signal;HPM_P1;HPM_P2
2021/06/07 00:02:21;;;;;;;13.13;10.90;;;;;;;17.29;92.61;95203.97;5064787;28;20108;-70
2021/06/07 00:04:50;;;;;;;13.38;9.77;;;;;;;17.28;93.03;95205.03;5064932;28;20045;-70
2021/06/07 00:07:17;;;;;;;14.02;10.40;;;;;;;17.15;93.73;95205.56;5066455;28;20063;-70
2021/06/07 00:09:44;;;;;;;11.35;10.20;;;;;;;17.07;93.15;95200.81;5047185;28;20052;-71
2021/06/07 00:12:14;;;;;;;14.02;9.50;;;;;;;17.25;92.72;95216.09;5064923;28;20041;-71
2021/06/07 00:14:42;;;;;;;13.30;10.27;;;;;;;17.34;92.12;95209.25;5064691;28;20052;-70
2021/06/07 00:17:08;;;;;;;12.55;9.70;;;;;;;17.42;91.65;95204.50;5064986;28;20036;-70
2021/06/07 00:19:38;;;;;;;11.35;10.05;;;;;;;17.38;91.56;95194.50;5064593;28;20044;-71
2021/06/07 00:22:06;;;;;;;13.45;9.77;;;;;;;17.50;91.61;95206.59;5064405;28;20541;-70
2021/06/07 00:24:33;;;;;;;16.80;9.65;;;;;;;17.48;91.30;95203.44;5064988;28;20032;-70
2021/06/07 00:27:00;;;;;;;13.02;10.70;;;;;;;17.51;91.37;95208.19;5064955;28;20059;-71
2021/06/07 00:29:26;;;;;;;13.25;10.82;;;;;;;17.55;90.83;95209.22;5064470;28;20048;-71
2021/06/07 00:31:53;;;;;;;12.57;9.45;;;;;;;17.60;90.73;95206.59;5064799;28;20048;-71
2021/06/07 00:34:20;;;;;;;11.82;9.55;;;;;;;17.63;89.64;95200.78;5064662;28;20040;-71
2021/06/07 00:36:47;;;;;;;17.23;9.82;;;;;;;17.66;90.02;95202.88;5063323;28;20045;-70
2021/06/07 00:39:15;;;;;;;12.73;9.52;;;;;;;17.64;89.73;95199.72;5063610;28;20059;-71
2021/06/07 00:41:46;;;;;;;14.40;10.15;;;;;;;17.61;89.90;95197.66;5063196;28;20040;-71
2021/06/07 00:44:16;;;;;;;14.68;10.07;;;;;;;17.60;89.97;95196.06;5062728;28;20037;-71
2021/06/07 00:46:44;;;;;;;11.60;9.80;;;;;;;17.44;91.24;95191.88;5064418;28;20037;-71
2021/06/07 00:49:11;;;;;;;13.90;10.68;;;;;;;17.22;92.42;95195.56;5064471;28;20055;-70
2021/06/07 00:51:40;;;;;;;13.02;10.15;;;;;;;17.10;93.65;95187.13;5065891;28;20478;-71
2021/06/07 00:54:08;;;;;;;17.23;10.45;;;;;;;17.19;93.13;95193.44;5064502;28;20052;-71
2021/06/07 00:56:36;;;;;;;16.73;10.45;;;;;;;17.24;92.64;95193.44;5046356;28;20059;-70
2021/06/07 00:59:03;;;;;;;14.32;9.95;;;;;;;17.32;92.15;95190.31;5064447;28;20055;-70
2021/06/07 01:01:30;;;;;;;15.77;10.93;;;;;;;17.40;91.33;95186.34;5064528;28;20037;-70
2021/06/07 01:03:59;;;;;;;11.02;9.73;;;;;;;17.45;91.42;95188.16;5046488;28;20143;-70
2021/06/07 01:06:26;;;;;;;15.68;10.38;;;;;;;17.45;91.11;95188.97;5063329;28;20045;-70
2021/06/07 01:08:54;;;;;;;12.02;9.57;;;;;;;17.36;91.24;95193.97;5062391;28;20046;-70
2021/06/07 01:11:21;;;;;;;10.85;9.18;;;;;;;17.39;90.42;95190.00;5064036;28;20044;-70
2021/06/07 01:13:49;;;;;;;11.32;9.48;;;;;;;17.30;90.12;95181.84;5046768;28;20418;-70
2021/06/07 01:16:18;;;;;;;13.70;10.35;;;;;;;17.30;90.26;95181.84;5066404;28;20039;-70
2021/06/07 01:18:47;;;;;;;14.82;10.80;;;;;;;17.22;90.56;95190.28;5067298;28;20102;-69
2021/06/07 01:21:19;;;;;;;16.58;10.65;;;;;;;17.25;90.49;95188.97;5067940;28;20067;-70
2021/06/07 01:23:47;;;;;;;14.55;10.70;;;;;;;17.26;90.64;95180.81;5067762;28;20042;-70
2021/06/07 01:26:18;;;;;;;15.68;10.23;;;;;;;17.26;91.37;95180.03;5067827;28;20043;-70
2021/06/07 01:28:45;;;;;;;14.85;10.13;;;;;;;17.29;91.51;95185.56;5067873;28;20048;-70
2021/06/07 01:31:13;;;;;;;12.35;9.52;;;;;;;17.29;91.02;95179.50;5049649;28;20139;-70
2021/06/07 01:33:43;;;;;;;15.73;10.55;;;;;;;17.32;91.49;95189.50;5067478;28;20044;-70
2021/06/07 01:36:11;;;;;;;13.88;10.60;;;;;;;17.32;91.49;95179.78;5067336;28;20725;-70
2021/06/07 01:38:39;;;;;;;13.70;10.27;;;;;;;17.39;91.03;95190.81;5049670;28;20040;-70
2021/06/07 01:41:09;;;;;;;10.73;9.65;;;;;;;17.39;91.37;95185.56;5067752;28;20040;-70
2021/06/07 01:43:37;;;;;;;14.10;10.27;;;;;;;17.27;91.66;95176.31;5047367;28;20048;-70
2021/06/07 01:46:04;;;;;;;15.63;10.20;;;;;;;17.23;92.67;95186.59;5067496;28;20422;-71
2021/06/07 01:48:31;;;;;;;14.52;10.75;;;;;;;17.21;92.33;95183.44;5067809;28;20048;-70
2021/06/07 01:51:00;;;;;;;15.25;10.68;;;;;;;17.27;92.22;95187.66;5067368;28;20048;-70
2021/06/07 01:53:28;;;;;;;15.80;10.32;;;;;;;17.27;91.70;95182.41;5068813;28;20097;-70
2021/06/07 01:55:58;;;;;;;20.25;10.43;;;;;;;17.15;91.94;95179.25;5067287;28;20036;-70
2021/06/07 01:58:25;;;;;;;16.80;10.77;;;;;;;17.00;92.05;95183.44;5066010;28;20036;-70
2021/06/07 02:00:57;;;;;;;17.67;10.73;;;;;;;16.85;92.05;95186.06;5069005;28;20047;-70
2021/06/07 02:03:24;;;;;;;13.13;10.82;;;;;;;16.85;92.87;95185.28;5066994;28;20042;-70
2021/06/07 02:05:55;;;;;;;16.55;9.95;;;;;;;16.91;91.83;95190.28;5049247;28;20051;-70
2021/06/07 02:08:23;;;;;;;12.05;10.20;;;;;;;16.90;90.69;95177.38;5049841;28;20045;-70
2021/06/07 02:11:00;;;;;;;12.23;9.65;;;;;;;16.95;91.12;95187.91;5032242;28;20046;-70
2021/06/07 02:13:27;;;;;;;14.05;10.90;;;;;;;16.90;91.01;95188.69;5067279;28;20055;-70
2021/06/07 02:15:58;;;;;;;12.05;10.48;;;;;;;16.90;91.40;95188.69;5068030;28;20041;-70
2021/06/07 02:18:27;;;;;;;17.77;10.50;;;;;;;16.90;91.41;95188.69;5050560;28;20466;-70
2021/06/07 02:20:55;;;;;;;14.85;10.80;;;;;;;16.87;91.10;95186.59;5066777;28;20033;-70
2021/06/07 02:23:22;;;;;;;15.35;10.90;;;;;;;16.87;91.80;95183.16;5066808;28;20040;-70
2021/06/07 02:25:51;;;;;;;20.98;11.73;;;;;;;16.91;91.88;95189.50;5066925;28;20045;-71
2021/06/07 02:28:19;;;;;;;13.77;11.75;;;;;;;16.88;92.55;95184.75;5065654;28;20616;-70
2021/06/07 02:30:46;;;;;;;18.88;11.75;;;;;;;16.88;92.22;95185.53;5067221;28;20498;-70
2021/06/07 02:33:14;;;;;;;14.30;10.75;;;;;;;16.83;92.53;95193.41;5068446;28;20429;-71
2021/06/07 02:35:41;;;;;;;17.42;11.35;;;;;;;16.79;93.37;95184.44;5066546;28;20045;-71
2021/06/07 02:38:08;;;;;;;16.27;10.80;;;;;;;16.84;93.66;95187.13;5047366;28;20163;-70
2021/06/07 02:40:36;;;;;;;13.95;9.40;;;;;;;16.81;93.60;95193.66;5066649;28;20044;-71
2021/06/07 02:43:04;;;;;;;14.38;10.65;;;;;;;16.90;93.26;95188.69;5049244;28;20052;-71
2021/06/07 02:45:31;;;;;;;17.88;9.77;;;;;;;16.97;93.18;95193.72;5064401;28;20094;-71
2021/06/07 02:48:00;;;;;;;17.33;10.18;;;;;;;17.04;92.75;95190.81;5066569;28;20045;-71
2021/06/07 02:50:30;;;;;;;14.77;10.32;;;;;;;17.04;92.45;95193.47;5067533;28;20041;-70
2021/06/07 02:52:57;;;;;;;19.23;10.70;;;;;;;17.07;92.07;95193.72;5067569;28;20036;-70
2021/06/07 02:55:28;;;;;;;11.40;10.15;;;;;;;17.07;91.72;95198.19;5065951;28;20048;-71
2021/06/07 02:57:57;;;;;;;14.93;11.05;;;;;;;17.02;92.08;95192.94;5065566;28;20041;-70
2021/06/07 03:00:28;;;;;;;14.95;11.63;;;;;;;16.90;93.11;95187.91;5066017;28;20051;-71
2021/06/07 03:02:56;;;;;;;19.42;10.90;;;;;;;16.84;93.21;95184.50;5067455;28;20048;-71
2021/06/07 03:05:24;;;;;;;15.73;11.40;;;;;;;16.87;93.17;95191.88;5065488;28;20049;-70
2021/06/07 03:07:51;;;;;;;13.60;10.50;;;;;;;16.84;93.21;95195.00;5067057;28;20032;-71
2021/06/07 03:10:19;;;;;;;17.38;10.90;;;;;;;16.77;92.84;95189.19;5065087;28;20507;-70
2021/06/07 03:12:46;;;;;;;19.55;10.73;;;;;;;16.80;92.99;95193.94;5065627;28;20054;-70
2021/06/07 03:15:15;;;;;;;12.68;10.88;;;;;;;16.83;93.29;95198.69;5067259;28;20040;-70
2021/06/07 03:17:43;;;;;;;14.23;10.50;;;;;;;16.82;93.71;95197.09;5065625;28;20052;-70
2021/06/07 03:20:16;;;;;;;12.52;11.13;;;;;;;16.79;94.39;95201.00;5064185;28;20037;-71
2021/06/07 03:22:44;;;;;;;18.02;11.65;;;;;;;16.65;94.86;95175.47;5065599;28;20048;-70
2021/06/07 03:25:11;;;;;;;17.88;11.20;;;;;;;16.84;94.53;95205.53;5065322;28;20135;-70
2021/06/07 03:27:40;;;;;;;15.23;10.45;;;;;;;16.88;94.41;95193.44;5064400;28;20615;-70
2021/06/07 03:30:09;;;;;;;16.85;11.32;;;;;;;16.97;94.29;95205.00;5046378;28;20051;-71
2021/06/07 03:32:37;;;;;;;14.85;10.65;;;;;;;16.99;94.01;95205.53;5065321;28;20047;-70
2021/06/07 03:35:07;;;;;;;14.85;11.68;;;;;;;17.08;93.49;95205.03;5065144;28;20048;-70
2021/06/07 03:37:34;;;;;;;17.50;11.85;;;;;;;17.16;92.95;95212.38;5064192;28;20047;-70
2021/06/07 03:40:05;;;;;;;22.23;10.43;;;;;;;17.20;92.91;95218.72;5063708;28;20430;-71
2021/06/07 03:42:32;;;;;;;15.88;11.27;;;;;;;17.20;93.05;95213.47;5047321;28;20040;-70
2021/06/07 03:44:59;;;;;;;15.80;11.60;;;;;;;17.17;92.85;95208.72;5065489;28;20548;-71
2021/06/07 03:47:26;;;;;;;15.95;11.30;;;;;;;16.93;95.00;95203.97;5065271;28;20040;-70
2021/06/07 03:49:53;;;;;;;14.20;12.20;;;;;;;16.76;95.76;95192.84;5066678;28;20040;-71
2021/06/07 03:52:20;;;;;;;17.17;12.10;;;;;;;16.95;95.88;95207.13;5065480;28;20048;-70
2021/06/07 03:54:46;;;;;;;20.25;12.23;;;;;;;17.11;95.56;95215.03;5065221;28;20036;-71
2021/06/07 03:57:13;;;;;;;13.45;11.98;;;;;;;17.19;94.19;95215.28;5065118;28;20036;-71
2021/06/07 03:59:40;;;;;;;19.30;12.73;;;;;;;17.30;93.14;95213.44;5047138;28;20045;-71
2021/06/07 04:02:10;;;;;;;16.17;13.10;;;;;;;17.29;92.90;95201.34;5047163;28;20153;-71
2021/06/07 04:04:39;;;;;;;13.52;12.13;;;;;;;17.44;92.88;95212.94;5047188;28;20049;-71
2021/06/07 04:07:06;;;;;;;14.68;11.98;;;;;;;17.49;91.96;95215.56;5064815;28;20029;-71
2021/06/07 04:09:33;;;;;;;13.02;11.68;;;;;;;17.50;91.58;95206.59;5064990;28;20037;-71
2021/06/07 04:12:00;;;;;;;14.10;12.55;;;;;;;17.47;91.23;95212.41;5064882;28;20425;-71
2021/06/07 04:14:28;;;;;;;16.63;11.80;;;;;;;17.33;92.52;95205.03;5064916;28;20142;-71
2021/06/07 04:16:55;;;;;;;15.30;12.00;;;;;;;17.21;92.43;95204.50;5064864;28;20392;-71
2021/06/07 04:19:22;;;;;;;19.48;12.15;;;;;;;17.19;93.23;95207.38;5046948;28;20063;-71
2021/06/07 04:21:49;;;;;;;13.18;10.35;;;;;;;17.14;91.85;95199.50;5064730;28;20536;-71
2021/06/07 04:24:16;;;;;;;16.77;11.40;;;;;;;17.16;91.69;95207.13;5066648;28;20055;-71
2021/06/07 04:26:42;;;;;;;13.52;10.18;;;;;;;17.07;90.99;95209.50;5064946;28;20502;-71
2021/06/07 04:29:09;;;;;;;13.52;10.00;;;;;;;16.92;90.53;95191.84;5066502;28;20501;-71
2021/06/07 04:31:36;;;;;;;12.77;10.35;;;;;;;16.96;90.74;95208.72;5063829;28;20063;-71
2021/06/07 04:34:20;;;;;;;;;;;;;;;17.00;92.37;95209.75;5065338;28;20059;-71
2021/06/07 04:36:47;;;;;;;21.45;9.95;;;;;;;17.03;90.58;95207.66;5064617;28;19931;-71
2021/06/07 04:39:14;;;;;;;11.45;9.60;;;;;;;16.99;90.99;95210.00;5046642;28;20103;-71
2021/06/07 04:41:41;;;;;;;12.85;9.90;;;;;;;17.05;91.18;95210.81;5064421;28;20048;-71
2021/06/07 04:44:08;;;;;;;13.68;9.05;;;;;;;17.19;90.37;95219.75;5062939;28;20063;-71
2021/06/07 04:46:35;;;;;;;11.60;9.88;;;;;;;17.41;90.50;95218.72;5063459;28;22204;-71
2021/06/07 04:49:02;;;;;;;21.60;9.80;;;;;;;17.29;90.73;95227.66;5065038;28;20047;-71
2021/06/07 04:51:28;;;;;;;11.80;9.38;;;;;;;17.28;91.52;95220.81;5063958;28;20461;-71
2021/06/07 04:53:55;;;;;;;12.30;9.45;;;;;;;17.20;92.41;95224.00;5067168;28;20052;-71
2021/06/07 04:56:22;;;;;;;12.45;9.52;;;;;;;17.13;92.58;95223.47;5067305;28;20046;-72
2021/06/07 04:58:49;;;;;;;11.13;9.65;;;;;;;17.16;93.63;95217.66;5068454;28;20111;-71
2021/06/07 05:01:16;;;;;;;11.95;8.88;;;;;;;17.17;92.12;95219.25;5051880;28;20036;-72
2021/06/07 05:03:43;;;;;;;15.00;9.00;;;;;;;17.37;91.26;95224.50;5068318;28;20040;-72
2021/06/07 05:06:10;;;;;;;14.77;9.25;;;;;;;17.43;90.07;95213.97;5051632;28;20067;-71
2021/06/07 05:08:38;;;;;;;12.13;9.02;;;;;;;17.39;89.82;95206.63;5067738;28;20046;-72
2021/06/07 05:11:05;;;;;;;18.77;10.32;;;;;;;17.39;89.81;95205.81;5049830;28;20069;-72
2021/06/07 05:13:32;;;;;;;34.80;10.48;;;;;;;17.53;89.61;95211.34;5068072;28;20051;-72
2021/06/07 05:16:00;;;;;;;10.52;9.43;;;;;;;17.67;88.36;95222.91;5068094;28;20101;-71
2021/06/07 05:18:27;;;;;;;12.77;11.18;;;;;;;17.57;87.62;95217.66;5068315;28;20127;-71
2021/06/07 05:20:54;;;;;;;13.30;10.13;;;;;;;17.66;87.59;95221.31;5069478;28;20040;-71
2021/06/07 05:23:21;;;;;;;11.07;9.73;;;;;;;17.78;86.84;95221.03;5069045;28;20123;-72
2021/06/07 05:25:49;;;;;;;10.88;9.23;;;;;;;17.93;86.83;95225.50;5066465;28;20041;-72
2021/06/07 05:28:18;;;;;;;12.27;9.38;;;;;;;18.05;86.75;95223.38;5066475;28;20144;-72
2021/06/07 05:30:47;;;;;;;10.43;8.77;;;;;;;18.14;87.03;95234.94;5066941;28;20112;-72
2021/06/07 05:33:14;;;;;;;11.10;9.40;;;;;;;18.03;86.23;95217.59;5067069;28;20036;-72
2021/06/07 05:35:44;;;;;;;13.48;9.32;;;;;;;18.08;86.21;95233.41;5066627;28;20468;-72
2021/06/07 05:38:13;;;;;;;12.00;9.13;;;;;;;18.09;86.90;95234.97;5067942;28;20044;-72
2021/06/07 05:40:41;;;;;;;12.00;9.40;;;;;;;18.24;86.39;95230.69;5048903;28;20532;-71
2021/06/07 05:43:08;;;;;;;10.30;9.00;;;;;;;18.26;85.56;95231.25;5067223;28;20040;-72
2021/06/07 05:45:36;;;;;;;10.43;9.40;;;;;;;18.45;85.20;95226.91;5063321;28;20037;-72
2021/06/07 05:48:05;;;;;;;11.57;9.25;;;;;;;18.78;83.45;95224.66;5066655;28;20052;-72
2021/06/07 05:50:34;;;;;;;10.10;9.10;;;;;;;18.91;82.32;95228.56;5068371;28;20127;-71
2021/06/07 05:53:01;;;;;;;12.00;9.05;;;;;;;18.96;81.51;95231.19;5068300;28;20086;-72
2021/06/07 05:55:33;;;;;;;11.18;9.02;;;;;;;19.02;79.67;95218.75;5067131;28;20068;-72
2021/06/07 05:58:03;;;;;;;10.25;9.25;;;;;;;19.17;81.80;95226.53;5067239;28;20041;-72
2021/06/07 06:00:33;;;;;;;11.30;9.13;;;;;;;19.31;79.82;95224.06;5066585;28;20036;-72
2021/06/07 06:03:01;;;;;;;13.70;11.35;;;;;;;19.25;79.57;95228.59;5066023;28;20561;-71
2021/06/07 06:05:28;;;;;;;14.88;11.00;;;;;;;19.28;78.37;95219.31;5065910;28;20047;-71
2021/06/07 06:07:55;;;;;;;14.02;11.38;;;;;;;19.24;78.89;95221.72;5049768;28;20569;-72
2021/06/07 06:10:22;;;;;;;13.23;11.05;;;;;;;19.01;80.04;95211.88;5065473;28;20115;-72
2021/06/07 06:12:50;;;;;;;19.33;12.68;;;;;;;19.36;77.84;95223.25;5066767;28;20063;-71
2021/06/07 06:15:19;;;;;;;16.80;12.18;;;;;;;19.39;79.83;95225.31;5064771;28;20048;-72
2021/06/07 06:17:47;;;;;;;17.13;12.55;;;;;;;19.53;78.35;95217.53;5065357;28;20494;-72
2021/06/07 06:20:15;;;;;;;16.08;12.25;;;;;;;19.76;76.68;95221.34;5068724;28;20040;-72
2021/06/07 06:22:43;;;;;;;15.27;12.48;;;;;;;20.12;74.01;95213.03;5066536;28;20044;-72
2021/06/07 06:25:11;;;;;;;14.52;12.68;;;;;;;20.19;75.45;95208.97;5067360;28;20037;-72
2021/06/07 06:27:39;;;;;;;17.27;11.77;;;;;;;20.44;73.18;95215.81;5065488;28;20041;-72
2021/06/07 06:30:08;;;;;;;13.02;11.20;;;;;;;20.69;71.76;95216.59;5066557;28;20089;-71
2021/06/07 06:32:36;;;;;;;13.68;12.32;;;;;;;20.69;70.27;95221.91;5066084;28;20506;-72
2021/06/07 06:35:03;;;;;;;33.15;16.75;;;;;;;20.55;70.60;95205.91;5066507;28;20097;-71
2021/06/07 06:37:30;;;;;;;16.83;14.77;;;;;;;20.63;70.24;95223.00;5066618;28;20036;-71
2021/06/07 06:39:57;;;;;;;15.85;12.70;;;;;;;20.20;72.92;95230.91;5067170;28;20045;-72
2021/06/07 06:42:24;;;;;;;17.35;13.60;;;;;;;20.07;74.56;95226.31;5047806;28;20048;-72
2021/06/07 06:44:51;;;;;;;15.93;12.98;;;;;;;20.30;72.99;95220.22;5064750;28;20288;-72
2021/06/07 06:47:18;;;;;;;28.40;23.23;;;;;;;20.30;72.33;95219.44;5066119;28;20040;-72
2021/06/07 06:49:45;;;;;;;19.92;17.83;;;;;;;20.37;73.41;95225.97;5065251;28;20055;-72
2021/06/07 06:52:11;;;;;;;17.13;15.32;;;;;;;20.42;71.52;95233.84;5066171;28;20049;-72
2021/06/07 06:54:38;;;;;;;17.08;12.23;;;;;;;20.47;71.25;95218.97;5048884;28;20060;-71
2021/06/07 06:57:05;;;;;;;14.68;12.05;;;;;;;20.47;74.95;95221.59;5064627;28;20048;-71
2021/06/07 06:59:50;;;;;;;;;;;;;;;20.68;71.41;95222.94;5066127;28;20045;-71
2021/06/07 07:02:17;;;;;;;50.70;45.05;;;;;;;20.69;71.63;95211.31;5065164;28;19977;-71
2021/06/07 07:04:44;;;;;;;15.77;13.25;;;;;;;21.06;70.03;95225.59;5065959;28;20044;-71
2021/06/07 07:07:11;;;;;;;21.05;12.50;;;;;;;21.27;69.56;95230.59;5064277;28;20109;-71
2021/06/07 07:09:40;;;;;;;18.70;12.95;;;;;;;21.52;69.06;95232.09;5045797;28;20047;-71
2021/06/07 07:12:07;;;;;;;14.27;12.77;;;;;;;21.82;67.67;95236.06;5066188;28;20044;-71
2021/06/07 07:14:34;;;;;;;15.77;12.35;;;;;;;21.87;66.31;95220.06;5065748;28;20040;-72
2021/06/07 07:17:02;;;;;;;18.40;13.75;;;;;;;22.06;66.92;95235.13;5049576;28;20425;-72
2021/06/07 07:19:29;;;;;;;14.77;12.35;;;;;;;22.09;67.54;95231.88;5047879;28;20053;-72
2021/06/07 07:21:56;;;;;;;31.77;13.43;;;;;;;22.20;66.82;95224.50;5067198;28;20429;-72
2021/06/07 07:24:23;;;;;;;21.73;18.90;;;;;;;22.26;65.90;95240.06;5067321;28;20084;-72
2021/06/07 07:26:50;;;;;;;15.18;12.57;;;;;;;22.14;66.46;95237.09;5065290;28;20502;-71
2021/06/07 07:29:17;;;;;;;20.38;14.25;;;;;;;22.19;65.99;95244.97;5064638;28;22127;-72
2021/06/07 07:31:43;;;;;;;16.15;12.55;;;;;;;22.32;64.79;95232.81;5067185;28;20048;-71
2021/06/07 07:34:10;;;;;;;14.95;12.55;;;;;;;22.32;65.50;95233.56;5064529;28;20040;-71
2021/06/07 07:36:37;;;;;;;24.00;15.32;;;;;;;22.42;64.83;95227.31;5065452;28;20494;-71
2021/06/07 07:39:04;;;;;;;19.15;15.13;;;;;;;22.33;64.82;95235.16;5065260;28;20043;-71
2021/06/07 07:41:31;;;;;;;32.78;21.27;;;;;;;22.42;64.75;95226.50;5065409;28;20531;-71
2021/06/07 07:43:58;;;;;;;19.05;12.88;;;;;;;22.51;63.27;95241.44;5067042;28;20049;-71
2021/06/07 07:46:40;;;;;;;21.58;14.65;;;;;;;22.66;64.71;95232.38;5065299;28;20040;-72
2021/06/07 07:49:10;;;;;;;14.15;12.50;;;;;;;22.82;63.63;95234.72;5063845;28;20474;-72
2021/06/07 07:51:38;;;;;;;15.30;12.88;;;;;;;23.04;62.18;95232.09;5064725;28;20067;-72
2021/06/07 07:54:06;;;;;;;23.75;16.42;;;;;;;23.11;61.77;95236.25;5067012;28;20048;-72
2021/06/07 07:56:33;;;;;;;21.92;12.70;;;;;;;22.96;63.14;95224.03;5067075;28;20040;-72
2021/06/07 07:59:00;;;;;;;17.52;12.50;;;;;;;23.22;62.83;95221.63;5066516;28;20040;-73
2021/06/07 08:01:27;;;;;;;23.75;14.15;;;;;;;23.47;63.50;95229.00;5047103;28;20067;-73
2021/06/07 08:03:54;;;;;;;23.52;13.45;;;;;;;23.64;62.06;95216.88;5065411;28;20051;-73
2021/06/07 08:06:21;;;;;;;17.45;12.68;;;;;;;23.72;61.42;95223.38;5067843;28;20044;-76
2021/06/07 08:08:48;;;;;;;20.15;12.40;;;;;;;23.91;59.23;95225.81;5065364;28;20486;-72
2021/06/07 08:11:15;;;;;;;16.10;13.90;;;;;;;23.87;58.71;95225.66;5064202;28;20047;-72
2021/06/07 08:13:41;;;;;;;19.25;13.07;;;;;;;23.82;57.90;95223.91;5065334;28;20045;-72
2021/06/07 08:16:09;;;;;;;14.95;12.00;;;;;;;23.69;59.28;95235.38;5063970;28;20044;-71
2021/06/07 08:18:36;;;;;;;22.35;11.07;;;;;;;23.72;58.29;95237.44;5064727;28;20487;-74
2021/06/07 08:21:03;;;;;;;15.90;12.00;;;;;;;23.60;58.24;95237.19;5064798;28;20045;-76
2021/06/07 08:23:30;;;;;;;12.32;11.05;;;;;;;23.81;57.55;95232.97;5065187;28;20051;-75
2021/06/07 08:25:57;;;;;;;13.00;10.88;;;;;;;23.95;57.48;95237.41;5065784;28;20105;-75
2021/06/07 08:28:24;;;;;;;13.05;10.00;;;;;;;24.05;55.10;95223.84;5068522;28;20036;-75
2021/06/07 08:30:51;;;;;;;12.57;11.20;;;;;;;24.16;57.28;95230.44;5055190;28;20036;-75
2021/06/07 08:33:18;;;;;;;14.90;11.07;;;;;;;24.20;54.43;95228.78;5069127;28;20037;-74
2021/06/07 08:35:45;;;;;;;11.85;10.60;;;;;;;24.14;53.85;95232.63;5070579;28;20115;-75
2021/06/07 08:38:11;;;;;;;19.25;10.98;;;;;;;23.76;56.60;95226.97;5068778;28;20040;-75
2021/06/07 08:40:38;;;;;;;14.85;10.98;;;;;;;23.64;55.35;95232.84;5070156;28;20126;-75
2021/06/07 08:43:05;;;;;;;14.93;10.30;;;;;;;23.82;55.77;95229.22;5051712;28;20472;-75
2021/06/07 08:45:34;;;;;;;15.55;10.85;;;;;;;24.04;55.93;95228.38;5068766;28;20145;-76
2021/06/07 08:48:01;;;;;;;14.13;10.65;;;;;;;24.32;54.86;95219.41;5064470;28;20090;-75
2021/06/07 08:50:30;;;;;;;12.40;11.20;;;;;;;24.59;52.70;95224.50;5068403;28;20433;-75
2021/06/07 08:52:57;;;;;;;16.10;12.60;;;;;;;24.67;52.40;95216.84;5070492;28;20040;-76
2021/06/07 08:55:28;;;;;;;10.18;9.18;;;;;;;24.75;48.82;95224.06;5069614;28;20056;-75
2021/06/07 08:57:59;;;;;;;10.52;7.90;;;;;;;24.76;48.52;95218.44;5072913;28;20049;-77
2021/06/07 09:00:31;;;;;;;11.32;9.15;;;;;;;24.92;48.71;95221.44;5067308;28;20041;-77
2021/06/07 09:03:02;;;;;;;10.77;9.32;;;;;;;24.97;48.84;95229.28;5067839;28;20612;-77
2021/06/07 09:05:30;;;;;;;12.63;9.43;;;;;;;25.08;49.61;95218.28;5068433;28;20111;-76
2021/06/07 09:08:06;;;;;;;10.02;8.40;;;;;;;25.12;47.88;95221.88;5068709;28;20032;-76
2021/06/07 09:10:36;;;;;;;12.77;8.85;;;;;;;25.01;47.93;95205.44;5067777;28;20047;-76
2021/06/07 09:13:05;;;;;;;11.00;9.80;;;;;;;25.17;47.81;95219.06;5066595;28;20051;-77
2021/06/07 09:15:42;;;;;;;10.85;8.90;;;;;;;25.29;47.90;95211.25;5067556;28;20048;-76
2021/06/07 09:18:15;;;;;;;12.38;9.77;;;;;;;25.44;48.60;95209.19;5067924;28;20045;-77
2021/06/07 09:20:43;;;;;;;12.27;9.32;;;;;;;25.56;46.89;95204.00;5067895;28;20051;-77
2021/06/07 09:23:14;;;;;;;14.88;9.32;;;;;;;25.69;50.77;95200.34;5068385;28;20505;-77
2021/06/07 09:25:45;;;;;;;10.40;9.10;;;;;;;25.60;47.83;95204.16;5070757;28;20426;-76
2021/06/07 09:28:15;;;;;;;12.80;8.90;;;;;;;25.66;48.90;95203.66;5069511;28;20120;-77
2021/06/07 09:30:51;;;;;;;9.88;8.85;;;;;;;25.45;49.83;95205.44;5052328;28;20052;-77
2021/06/07 09:33:23;;;;;;;10.18;9.18;;;;;;;25.58;49.29;95203.69;5069896;28;20040;-77
2021/06/07 09:36:14;;;;;;;13.93;10.07;;;;;;;25.80;48.44;95197.34;5051852;28;20044;-77
2021/06/07 09:39:10;;;;;;;8.40;7.60;;;;;;;25.92;45.29;95202.81;5068742;28;20532;-77
2021/06/07 09:41:55;;;;;;;12.77;8.00;;;;;;;26.01;44.37;95200.91;5057201;28;20438;-77
2021/06/07 09:44:27;;;;;;;10.25;7.80;;;;;;;26.12;43.88;95196.78;5068008;28;20050;-77
2021/06/07 09:47:06;;;;;;;10.80;6.93;;;;;;;26.08;44.08;95203.84;5068019;28;20044;-77
2021/06/07 09:49:46;;;;;;;8.55;7.65;;;;;;;26.25;43.69;95205.69;5068455;28;20110;-78
2021/06/07 09:52:17;;;;;;;9.02;7.60;;;;;;;26.46;43.99;95208.38;5069122;28;20044;-77
2021/06/07 09:54:45;;;;;;;10.80;7.63;;;;;;;26.07;42.94;95199.66;5070068;28;20573;-78
2021/06/07 09:57:13;;;;;;;8.73;7.68;;;;;;;26.11;44.92;95213.91;5072280;28;20032;-77
2021/06/07 09:59:43;;;;;;;11.98;8.75;;;;;;;26.06;45.51;95213.31;5070714;28;20055;-78
2021/06/07 10:02:19;;;;;;;11.80;8.50;;;;;;;25.84;45.33;95211.59;5057154;28;20416;-77
2021/06/07 10:05:00;;;;;;;10.57;7.97;;;;;;;25.92;43.94;95203.56;5073862;28;20044;-78
2021/06/07 10:07:27;;;;;;;8.25;6.97;;;;;;;25.95;43.94;95207.53;5069933;28;20039;-77
2021/06/07 10:10:07;;;;;;;9.10;7.70;;;;;;;25.71;43.53;95208.84;5069685;28;20045;-77
2021/06/07 10:12:34;;;;;;;8.05;7.30;;;;;;;25.37;43.47;95205.13;5056931;28;20151;-78
2021/06/07 10:15:03;;;;;;;11.45;7.28;;;;;;;25.19;44.84;95204.34;5070620;28;20118;-78
2021/06/07 10:17:30;;;;;;;16.35;8.15;;;;;;;25.10;45.43;95203.56;5080391;28;20040;-79
2021/06/07 10:22:38;;;;;;;8.30;7.38;;;;;;;24.63;44.87;95218.56;5081881;28;20040;-79
2021/06/07 10:25:08;;;;;;;8.55;7.70;;;;;;;24.50;46.09;95210.38;5076494;28;20041;-78
2021/06/07 10:27:35;;;;;;;10.27;8.40;;;;;;;24.21;47.13;95206.38;5082955;28;20417;-77
2021/06/07 10:30:38;;;;;;;7.05;6.35;;;;;;;23.69;50.63;95208.78;5077375;28;20071;-77
2021/06/07 10:33:30;;;;;;;9.57;6.97;;;;;;;23.22;53.02;95208.34;5066909;28;20064;-76
2021/06/07 10:36:27;;;;;;;13.40;6.47;;;;;;;22.88;53.54;95206.94;5053339;28;20037;-77
2021/06/07 10:39:14;;;;;;;8.52;6.43;;;;;;;22.39;56.15;95213.84;5067587;28;20040;-76
2021/06/07 10:41:44;;;;;;;11.25;7.35;;;;;;;22.31;56.57;95216.09;5050411;28;20052;-76
2021/06/07 10:44:11;;;;;;;11.30;7.00;;;;;;;21.96;57.75;95215.66;5066276;28;20514;-76
2021/06/07 10:46:43;;;;;;;12.15;7.88;;;;;;;22.03;58.44;95214.50;5067708;28;20040;-77
2021/06/07 10:49:35;;;;;;;17.13;13.05;;;;;;;22.04;57.93;95222.16;5064980;28;20081;-76
2021/06/07 10:52:10;;;;;;;11.75;7.35;;;;;;;21.96;58.48;95220.97;5048608;28;20521;-76
2021/06/07 10:54:39;;;;;;;9.23;7.22;;;;;;;21.73;59.19;95227.22;5067134;28;20037;-76
2021/06/07 10:57:24;;;;;;;30.23;8.68;;;;;;;21.60;59.36;95230.63;5067943;28;20129;-76
2021/06/07 10:59:53;;;;;;;9.63;7.78;;;;;;;21.56;60.20;95225.91;5068500;28;20518;-76
2021/06/07 11:02:22;;;;;;;8.82;6.70;;;;;;;21.33;62.18;95224.13;5065721;28;20042;-75
2021/06/07 11:05:03;;;;;;;11.25;8.43;;;;;;;21.11;64.95;95227.41;5065457;28;20123;-76
2021/06/07 11:07:32;;;;;;;12.07;8.55;;;;;;;20.80;66.29;95228.63;5066964;28;20489;-75
2021/06/07 11:10:31;;;;;;;12.38;8.63;;;;;;;20.32;67.79;95228.66;5063748;28;20052;-75
2021/06/07 11:13:09;;;;;;;11.95;8.23;;;;;;;20.10;68.33;95225.75;5026398;28;20074;-74
2021/06/07 11:15:42;;;;;;;14.85;9.07;;;;;;;20.17;69.21;95231.50;5049341;28;20687;-76
2021/06/07 11:18:30;;;;;;;14.48;10.65;;;;;;;20.25;68.77;95228.22;5064230;28;20060;-73
2021/06/07 11:21:01;;;;;;;11.95;10.45;;;;;;;20.20;68.95;95233.56;5066168;28;20059;-74
2021/06/07 11:23:39;;;;;;;10.35;8.55;;;;;;;20.15;70.02;95223.84;5066138;28;20048;-74
2021/06/07 11:26:11;;;;;;;11.30;8.57;;;;;;;20.15;69.62;95231.78;5065609;28;20405;-74
2021/06/07 11:28:44;;;;;;;14.38;9.88;;;;;;;20.13;70.95;95235.75;5065696;28;20051;-74
2021/06/07 11:31:16;;;;;;;10.93;9.52;;;;;;;20.14;72.33;95226.75;5065493;28;20052;-74
2021/06/07 11:33:50;;;;;;;17.80;10.20;;;;;;;20.07;75.34;95231.59;5065464;28;20136;-74
2021/06/07 11:36:46;;;;;;;17.98;11.40;;;;;;;20.04;79.79;95227.63;5065232;28;20055;-73